createdAt,value
2023-07-18T00:01:39.692Z,97788.23
2023-07-18T00:04:08.768Z,97783.27
2023-07-18T00:06:39.933Z,97785.03
2023-07-18T00:09:08.308Z,97784.81
2023-07-18T00:11:37.436Z,97793.67
2023-07-18T00:14:06.038Z,97790.44
2023-07-18T00:16:34.494Z,97793.64
2023-07-18T00:19:02.939Z,97797.17
2023-07-18T00:21:31.374Z,97796.39
2023-07-18T00:24:00.801Z,97801.20
2023-07-18T00:26:29.030Z,97797.42
2023-07-18T00:28:57.258Z,97795.55
2023-07-18T00:31:25.665Z,97796.98
2023-07-18T00:33:53.863Z,97805.52
2023-07-18T00:36:23.007Z,97813.50
2023-07-18T00:38:51.561Z,97815.16
2023-07-18T00:41:20.045Z,97813.34
2023-07-18T00:43:48.464Z,97822.45
2023-07-18T00:46:17.757Z,97822.77
2023-07-18T00:48:46.178Z,97821.56
2023-07-18T00:51:14.643Z,97821.19
2023-07-18T00:53:43.184Z,97826.72
2023-07-18T00:56:11.306Z,97834.88
2023-07-18T00:58:40.077Z,97841.10
2023-07-18T01:01:08.550Z,97845.71
2023-07-18T01:03:40.057Z,97849.14
2023-07-18T01:06:11.188Z,97857.81
2023-07-18T01:08:41.299Z,97865.34
2023-07-18T01:11:09.588Z,97869.08
2023-07-18T01:13:37.567Z,97881.60
2023-07-18T01:16:05.679Z,97880.27
2023-07-18T01:18:34.454Z,97882.11
2023-07-18T01:21:03.641Z,97883.91
2023-07-18T01:23:31.784Z,97887.52
2023-07-18T01:26:00.513Z,97890.92
2023-07-18T01:28:28.973Z,97891.15
2023-07-18T01:30:57.441Z,97890.69
2023-07-18T01:33:25.833Z,97886.02
2023-07-18T01:35:54.425Z,97884.40
2023-07-18T01:38:22.757Z,97888.48
2023-07-18T01:40:50.959Z,97888.23
2023-07-18T01:43:19.022Z,97889.67
2023-07-18T01:45:47.207Z,97892.31
2023-07-18T01:48:15.640Z,97885.42
2023-07-18T01:50:44.687Z,97882.63
2023-07-18T01:53:12.870Z,97881.65
2023-07-18T01:55:42.060Z,97887.75
2023-07-18T01:58:10.123Z,97889.92
2023-07-18T02:00:38.262Z,97884.70
2023-07-18T02:03:07.275Z,97884.17
2023-07-18T02:05:35.903Z,97892.23
2023-07-18T02:08:04.867Z,97891.29
2023-07-18T02:10:34.782Z,97895.55
2023-07-18T02:13:04.377Z,97896.73
2023-07-18T02:15:33.299Z,97892.86
2023-07-18T02:18:01.402Z,97893.96
2023-07-18T02:20:30.962Z,97900.79
2023-07-18T02:23:01.997Z,97910.93
2023-07-18T02:25:30.946Z,97918.38
2023-07-18T02:27:59.329Z,97919.64
2023-07-18T02:30:29.655Z,97917.86
2023-07-18T02:32:58.692Z,97924.37
2023-07-18T02:35:27.662Z,97929.53
2023-07-18T02:37:55.734Z,97929.87
2023-07-18T02:40:25.976Z,97931.84
2023-07-18T02:42:54.531Z,97937.33
2023-07-18T02:45:22.670Z,97940.95
2023-07-18T02:47:50.897Z,97941.35
2023-07-18T02:50:19.238Z,97948.53
2023-07-18T02:52:47.695Z,97949.98
2023-07-18T02:55:15.806Z,97952.43
2023-07-18T02:57:43.885Z,97952.94
2023-07-18T03:00:21.538Z,97959.61
2023-07-18T03:02:50.794Z,97961.30
2023-07-18T03:05:20.744Z,97965.01
2023-07-18T03:07:49.457Z,97968.79
2023-07-18T03:10:17.878Z,97968.90
2023-07-18T03:12:47.447Z,97968.64
2023-07-18T03:15:17.701Z,97970.45
2023-07-18T03:17:45.972Z,97975.76
2023-07-18T03:20:21.162Z,97989.37
2023-07-18T03:22:51.687Z,97995.45
2023-07-18T03:25:22.162Z,97997.83
2023-07-18T03:27:51.388Z,98001.07
2023-07-18T03:30:19.777Z,98002.14
2023-07-18T03:32:49.407Z,97998.20
2023-07-18T03:35:17.846Z,98001.33
2023-07-18T03:37:45.967Z,98000.81
2023-07-18T03:40:17.526Z,98002.77
2023-07-18T03:42:46.489Z,98003.34
2023-07-18T03:45:15.421Z,98005.12
2023-07-18T03:47:44.785Z,98005.23
2023-07-18T03:50:15.619Z,98007.73
2023-07-18T03:52:44.096Z,98017.16
2023-07-18T03:55:12.300Z,98016.23
2023-07-18T03:57:41.436Z,98018.67
2023-07-18T04:00:18.861Z,98016.66
2023-07-18T04:02:49.408Z,98012.35
2023-07-18T04:05:19.188Z,98012.69
2023-07-18T04:07:48.106Z,98007.80
2023-07-18T04:10:16.839Z,98008.52
2023-07-18T04:12:45.461Z,98004.25
2023-07-18T04:15:14.908Z,98008.70
2023-07-18T04:17:43.173Z,98007.40
2023-07-18T04:20:11.992Z,98007.36
2023-07-18T04:22:40.165Z,98006.02
2023-07-18T04:25:09.317Z,98010.02
2023-07-18T04:27:37.284Z,98006.70
2023-07-18T04:30:07.111Z,98003.76
2023-07-18T04:32:35.223Z,98007.09
2023-07-18T04:35:04.924Z,98006.79
2023-07-18T04:37:33.108Z,98000.90
2023-07-18T04:40:01.523Z,98001.02
2023-07-18T04:42:30.083Z,98001.27
2023-07-18T04:44:58.823Z,98005.80
2023-07-18T04:47:27.891Z,98008.60
2023-07-18T04:49:57.110Z,98012.80
2023-07-18T04:52:25.216Z,98016.48
2023-07-18T04:54:53.617Z,98017.05
2023-07-18T04:57:22.377Z,98019.05
2023-07-18T04:59:50.631Z,98012.41
2023-07-18T05:02:18.764Z,98011.73
2023-07-18T05:04:46.801Z,98013.69
2023-07-18T05:07:16.340Z,98009.31
2023-07-18T05:09:47.570Z,98008.55
2023-07-18T05:12:15.963Z,97999.05
2023-07-18T05:14:44.600Z,97996.17
2023-07-18T05:17:12.634Z,97995.99
2023-07-18T05:19:40.904Z,98005.01
2023-07-18T05:22:09.225Z,98008.95
2023-07-18T05:24:37.523Z,98010.95
2023-07-18T05:27:06.424Z,98012.59
2023-07-18T05:29:34.464Z,98016.95
2023-07-18T05:32:02.689Z,98019.87
2023-07-18T05:34:30.814Z,98022.20
2023-07-18T05:37:00.768Z,98031.02
2023-07-18T05:39:29.399Z,98038.98
2023-07-18T05:41:58.693Z,98034.36
2023-07-18T05:44:26.913Z,98041.66
2023-07-18T05:46:55.284Z,98042.98
2023-07-18T05:49:23.642Z,98044.30
2023-07-18T05:51:51.804Z,98047.98
2023-07-18T05:54:20.327Z,98045.50
2023-07-18T05:56:48.583Z,98049.23
2023-07-18T05:59:16.773Z,98051.09
2023-07-18T06:01:45.485Z,98059.21
2023-07-18T06:04:17.167Z,98062.69
2023-07-18T06:06:46.152Z,98068.77
2023-07-18T06:09:14.642Z,98071.83
2023-07-18T06:11:43.570Z,98072.14
2023-07-18T06:14:12.038Z,98075.05
2023-07-18T06:16:40.635Z,98066.71
2023-07-18T06:19:08.797Z,98073.40
2023-07-18T06:21:37.068Z,98072.49
2023-07-18T06:24:18.075Z,98069.59
2023-07-18T06:26:50.813Z,98063.32
2023-07-18T06:29:21.256Z,98067.36
2023-07-18T06:31:50.550Z,98067.28
2023-07-18T06:34:20.055Z,98058.11
2023-07-18T06:36:48.422Z,98057.80
2023-07-18T06:39:18.248Z,98055.68
2023-07-18T06:41:46.930Z,98052.16
2023-07-18T06:44:16.485Z,98049.84
2023-07-18T06:46:45.276Z,98051.98
2023-07-18T06:49:14.697Z,98054.40
2023-07-18T06:51:43.560Z,98055.75
2023-07-18T06:54:11.835Z,98057.85
2023-07-18T06:56:41.810Z,98056.39
2023-07-18T06:59:10.646Z,98060.98
2023-07-18T07:01:38.851Z,98060.39
2023-07-18T07:04:07.256Z,98061.24
2023-07-18T07:06:42.775Z,98060.25
2023-07-18T07:09:14.544Z,98065.23
2023-07-18T07:11:44.767Z,98063.81
2023-07-18T07:14:13.312Z,98062.39
2023-07-18T07:16:42.041Z,98062.16
2023-07-18T07:19:10.577Z,98066.73
2023-07-18T07:21:38.708Z,98066.40
2023-07-18T07:24:07.339Z,98064.40
2023-07-18T07:26:38.921Z,98064.23
2023-07-18T07:29:08.651Z,98063.62
2023-07-18T07:31:38.770Z,98061.77
2023-07-18T07:34:13.561Z,98064.18
2023-07-18T07:36:41.697Z,98058.30
2023-07-18T07:39:09.887Z,98056.13
2023-07-18T07:41:38.155Z,98059.28
2023-07-18T07:44:06.180Z,98056.92
2023-07-18T07:46:34.259Z,98060.98
2023-07-18T07:49:05.386Z,98063.54
2023-07-18T07:51:34.862Z,98061.09
2023-07-18T07:54:03.027Z,98057.71
2023-07-18T07:56:31.485Z,98057.08
2023-07-18T08:01:31.031Z,98060.02
2023-07-18T08:03:59.246Z,98053.86
2023-07-18T08:06:27.563Z,98053.98
2023-07-18T08:08:55.980Z,98058.81
2023-07-18T08:11:24.265Z,98064.13
2023-07-18T08:13:54.616Z,98063.35
2023-07-18T08:16:22.985Z,98053.84
2023-07-18T08:18:51.119Z,98063.58
2023-07-18T08:21:20.513Z,98067.73
2023-07-18T08:23:49.227Z,98067.76
2023-07-18T08:26:17.319Z,98074.27
2023-07-18T08:28:45.378Z,98064.48
2023-07-18T08:31:13.459Z,98064.00
2023-07-18T08:33:41.508Z,98059.79
2023-07-18T08:36:09.704Z,98064.29
2023-07-18T08:38:38.396Z,98063.83
2023-07-18T08:41:08.975Z,98068.27
2023-07-18T08:43:38.432Z,98072.23
2023-07-18T08:46:08.400Z,98067.66
2023-07-18T08:48:36.595Z,98072.29
2023-07-18T08:51:04.743Z,98072.87
2023-07-18T08:53:35.519Z,98071.80
2023-07-18T08:56:09.630Z,98077.16
2023-07-18T08:58:38.855Z,98074.89
2023-07-18T09:01:09.181Z,98072.90
2023-07-18T09:03:37.605Z,98071.19
2023-07-18T09:06:19.438Z,98075.45
2023-07-18T09:08:48.305Z,98077.77
2023-07-18T09:11:22.214Z,98075.20
2023-07-18T09:13:50.910Z,98071.15
2023-07-18T09:16:23.301Z,98070.73
2023-07-18T09:18:56.673Z,98070.40
2023-07-18T09:21:24.996Z,98076.35
2023-07-18T09:23:54.125Z,98083.59
2023-07-18T09:26:23.111Z,98079.84
2023-07-18T09:28:52.733Z,98084.59
2023-07-18T09:31:23.903Z,98080.40
2023-07-18T09:33:55.245Z,98081.52
2023-07-18T09:36:25.815Z,98077.77
2023-07-18T09:38:54.039Z,98078.83
2023-07-18T09:41:24.002Z,98080.23
2023-07-18T09:44:02.764Z,98080.60
2023-07-18T09:46:44.733Z,98068.35
2023-07-18T09:49:14.701Z,98067.86
2023-07-18T09:51:49.332Z,98075.20
2023-07-18T09:54:18.471Z,98065.95
2023-07-18T09:56:48.129Z,98064.58
2023-07-18T09:59:17.623Z,98066.73
2023-07-18T10:01:46.723Z,98065.67
2023-07-18T10:04:15.098Z,98057.60
2023-07-18T10:06:43.947Z,98060.16
2023-07-18T10:09:13.129Z,98064.35
2023-07-18T10:11:59.637Z,98058.75
2023-07-18T10:15:01.478Z,98049.95
2023-07-18T10:17:32.662Z,98048.46
2023-07-18T10:20:05.614Z,98043.10
2023-07-18T10:22:34.171Z,98045.95
2023-07-18T10:25:09.280Z,98047.15
2023-07-18T10:27:39.113Z,98052.05
2023-07-18T10:30:09.676Z,98049.88
2023-07-18T10:32:39.532Z,98042.24
2023-07-18T10:35:12.231Z,98036.30
2023-07-18T10:37:45.310Z,98036.98
2023-07-18T10:40:31.450Z,98033.59
2023-07-18T10:43:00.238Z,98035.59
2023-07-18T10:45:28.451Z,98042.48
2023-07-18T10:47:56.745Z,98040.13
2023-07-18T10:50:25.185Z,98032.53
2023-07-18T10:52:53.276Z,98028.68
2023-07-18T10:55:21.259Z,98028.52
2023-07-18T10:57:49.330Z,98029.73
2023-07-18T11:00:18.651Z,98026.73
2023-07-18T11:02:46.731Z,98030.44
2023-07-18T11:05:15.367Z,98031.04
2023-07-18T11:07:45.751Z,98034.28
2023-07-18T11:10:15.015Z,98035.80
2023-07-18T11:12:44.075Z,98037.89
2023-07-18T11:15:13.251Z,98035.89
2023-07-18T11:17:43.399Z,98038.39
2023-07-18T11:20:13.027Z,98041.40
2023-07-18T11:22:41.981Z,98040.48
2023-07-18T11:25:11.185Z,98034.22
2023-07-18T11:27:39.274Z,98025.64
2023-07-18T11:30:10.642Z,98026.89
2023-07-18T11:32:46.878Z,98027.80
2023-07-18T11:35:24.654Z,98026.15
2023-07-18T11:37:54.558Z,98022.39
2023-07-18T11:40:27.282Z,98024.44
2023-07-18T11:42:59.200Z,98022.80
2023-07-18T11:45:31.353Z,98020.42
2023-07-18T11:48:00.538Z,98017.92
2023-07-18T11:50:30.646Z,98012.67
2023-07-18T11:53:00.337Z,98011.68
2023-07-18T11:55:29.305Z,98006.85
2023-07-18T11:57:58.736Z,98018.66
2023-07-18T12:00:27.113Z,98017.56
2023-07-18T12:02:55.230Z,98015.36
2023-07-18T12:05:25.828Z,98013.42
2023-07-18T12:07:54.413Z,98011.97
2023-07-18T12:10:25.645Z,98012.15
2023-07-18T12:12:54.534Z,98012.96
2023-07-18T12:15:22.834Z,98014.52
2023-07-18T12:17:51.636Z,98010.09
2023-07-18T12:20:20.185Z,98000.51
2023-07-18T12:22:48.330Z,98000.19
2023-07-18T12:25:16.823Z,98005.14
2023-07-18T12:27:45.184Z,97999.45
2023-07-18T12:30:13.609Z,97989.89
2023-07-18T12:32:41.911Z,97986.97
2023-07-18T12:35:10.510Z,97990.71
2023-07-18T12:37:38.606Z,97988.80
2023-07-18T12:40:08.555Z,97983.05
2023-07-18T12:42:36.678Z,97983.61
2023-07-18T12:45:05.540Z,97979.38
2023-07-18T12:47:33.873Z,97976.32
2023-07-18T12:50:02.106Z,97975.64
2023-07-18T12:52:31.211Z,97973.31
2023-07-18T12:54:59.549Z,97970.63
2023-07-18T12:57:30.003Z,97972.35
2023-07-18T12:59:59.358Z,97970.14
2023-07-18T13:02:28.225Z,97968.00
2023-07-18T13:04:56.737Z,97964.31
2023-07-18T13:07:24.953Z,97960.13
2023-07-18T13:09:53.600Z,97955.34
2023-07-18T13:12:21.597Z,97949.80
2023-07-18T13:14:49.706Z,97948.44
2023-07-18T13:17:18.025Z,97948.27
2023-07-18T13:19:45.981Z,97949.66
2023-07-18T13:22:13.998Z,97947.49
2023-07-18T13:24:42.274Z,97946.12
2023-07-18T13:27:10.367Z,97948.67
2023-07-18T13:29:38.466Z,97946.25
2023-07-18T13:32:08.370Z,97942.17
2023-07-18T13:34:37.742Z,97940.52
2023-07-18T13:37:06.630Z,97938.81
2023-07-18T13:39:34.948Z,97938.20
2023-07-18T13:42:03.287Z,97939.04
2023-07-18T13:44:31.184Z,97942.70
2023-07-18T13:46:59.536Z,97937.81
2023-07-18T13:49:49.097Z,97934.09
2023-07-18T13:52:16.223Z,97933.14
2023-07-18T13:54:44.254Z,97929.10
2023-07-18T13:57:12.274Z,97923.49
2023-07-18T13:59:40.469Z,97918.82
2023-07-18T14:02:08.621Z,97913.98
2023-07-18T14:04:37.536Z,97914.66
2023-07-18T14:07:06.007Z,97912.86
2023-07-18T14:09:36.694Z,97911.35
2023-07-18T14:12:06.579Z,97909.67
2023-07-18T14:14:34.629Z,97907.88
2023-07-18T14:17:02.806Z,97902.18
2023-07-18T14:19:30.789Z,97902.88
2023-07-18T14:21:59.047Z,97903.71
2023-07-18T14:24:27.065Z,97905.42
2023-07-18T14:26:55.583Z,97899.61
2023-07-18T14:29:23.760Z,97895.27
2023-07-18T14:31:53.502Z,97891.75
2023-07-18T14:34:22.012Z,97885.83
2023-07-18T14:36:50.247Z,97884.82
2023-07-18T14:39:18.250Z,97880.13
2023-07-18T14:41:46.300Z,97879.09
2023-07-18T14:44:14.959Z,97879.48
2023-07-18T14:46:42.983Z,97874.80
2023-07-18T14:49:11.181Z,97880.50
2023-07-18T14:51:39.530Z,97882.05
2023-07-18T14:54:07.461Z,97882.25
2023-07-18T14:56:38.465Z,97883.64
2023-07-18T14:59:06.781Z,97880.23
2023-07-18T15:01:34.853Z,97882.66
2023-07-18T15:04:03.273Z,97882.14
2023-07-18T15:06:32.004Z,97880.80
2023-07-18T15:09:00.083Z,97876.60
2023-07-18T15:11:30.354Z,97872.50
2023-07-18T15:13:58.977Z,97868.94
2023-07-18T15:16:27.345Z,97873.63
2023-07-18T15:18:55.714Z,97876.13
2023-07-18T15:21:24.123Z,97874.25
2023-07-18T15:23:52.342Z,97870.55
2023-07-18T15:26:21.394Z,97871.77
2023-07-18T15:28:50.019Z,97870.84
2023-07-18T15:31:19.210Z,97872.02
2023-07-18T15:33:47.593Z,97870.05
2023-07-18T15:36:16.471Z,97872.04
2023-07-18T15:38:46.437Z,97870.09
2023-07-18T15:41:14.651Z,97865.48
2023-07-18T15:43:43.788Z,97869.40
2023-07-18T15:46:12.234Z,97863.42
2023-07-18T15:48:45.333Z,97860.25
2023-07-18T15:51:14.055Z,97859.94
2023-07-18T15:53:41.989Z,97862.35
2023-07-18T15:56:15.425Z,97861.48
2023-07-18T15:58:43.795Z,97859.27
2023-07-18T16:01:12.265Z,97860.69
2023-07-18T16:03:40.832Z,97859.98
2023-07-18T16:06:09.630Z,97860.39
2023-07-18T16:08:37.617Z,97857.12
2023-07-18T16:11:05.679Z,97854.84
2023-07-18T16:13:33.892Z,97852.59
2023-07-18T16:16:02.239Z,97855.45
2023-07-18T16:18:30.547Z,97852.25
2023-07-18T16:20:58.580Z,97851.95
2023-07-18T16:23:26.609Z,97851.43
2023-07-18T16:25:55.369Z,97849.76
2023-07-18T16:28:23.449Z,97852.53
2023-07-18T16:30:51.635Z,97850.73
2023-07-18T16:33:19.801Z,97854.02
2023-07-18T16:35:48.549Z,97853.35
2023-07-18T16:38:16.698Z,97856.73
2023-07-18T16:40:44.802Z,97855.06
2023-07-18T16:43:12.985Z,97853.58
2023-07-18T16:45:41.351Z,97859.63
2023-07-18T16:48:09.479Z,97857.52
2023-07-18T16:50:37.640Z,97853.80
2023-07-18T16:53:05.782Z,97852.65
2023-07-18T16:55:33.855Z,97854.41
2023-07-18T16:58:04.011Z,97852.41
2023-07-18T17:00:32.720Z,97855.97
2023-07-18T17:03:00.654Z,97853.65
2023-07-18T17:05:29.072Z,97855.55
2023-07-18T17:07:57.422Z,97851.67
2023-07-18T17:10:26.964Z,97845.72
2023-07-18T17:12:55.533Z,97846.83
2023-07-18T17:15:23.566Z,97842.13
2023-07-18T17:17:51.725Z,97839.06
2023-07-18T17:20:20.315Z,97841.70
2023-07-18T17:22:48.320Z,97841.38
2023-07-18T17:25:16.452Z,97837.87
2023-07-18T17:27:44.527Z,97836.72
2023-07-18T17:30:12.903Z,97834.91
2023-07-18T17:32:41.174Z,97835.89
2023-07-18T17:35:10.385Z,97838.35
2023-07-18T17:37:41.418Z,97833.85
2023-07-18T17:40:12.936Z,97833.46
2023-07-18T17:42:43.911Z,97831.89
2023-07-18T17:45:13.229Z,97829.62
2023-07-18T17:47:42.052Z,97826.82
2023-07-18T17:50:11.402Z,97827.63
2023-07-18T17:52:40.708Z,97829.55
2023-07-18T17:55:12.584Z,97831.02
2023-07-18T17:57:40.910Z,97829.65
2023-07-18T18:00:10.176Z,97826.89
2023-07-18T18:02:38.313Z,97830.46
2023-07-18T18:05:35.772Z,97831.09
2023-07-18T18:08:08.457Z,97832.87
2023-07-18T18:10:36.481Z,97841.30
2023-07-18T18:13:04.850Z,97848.00
2023-07-18T18:15:33.171Z,97852.15
2023-07-18T18:18:02.418Z,97854.50
2023-07-18T18:20:30.642Z,97853.61
2023-07-18T18:22:59.108Z,97856.13
2023-07-18T18:25:28.432Z,97859.27
2023-07-18T18:27:56.783Z,97860.93
2023-07-18T18:30:25.162Z,97870.19
2023-07-18T18:32:54.184Z,97877.21
2023-07-18T18:35:22.080Z,97881.85
2023-07-18T18:37:50.134Z,97892.59
2023-07-18T18:40:18.910Z,97897.80
2023-07-18T18:42:47.839Z,97898.98
2023-07-18T18:45:16.898Z,97902.54
2023-07-18T18:47:44.867Z,97901.55
2023-07-18T18:50:17.044Z,97902.73
2023-07-18T18:52:48.406Z,97900.47
2023-07-18T18:55:20.248Z,97901.58
2023-07-18T18:57:49.137Z,97900.00
2023-07-18T19:00:18.761Z,97903.11
2023-07-18T19:02:47.111Z,97914.20
2023-07-18T19:05:15.461Z,97915.09
2023-07-18T19:07:43.576Z,97911.83
2023-07-18T19:10:11.778Z,97915.16
2023-07-18T19:12:40.439Z,97910.40
2023-07-18T19:15:09.095Z,97914.01
2023-07-18T19:17:37.273Z,97917.52
2023-07-18T19:20:06.127Z,97920.48
2023-07-18T19:22:34.442Z,97923.72
2023-07-18T19:25:03.510Z,97927.27
2023-07-18T19:27:31.819Z,97931.39
2023-07-18T19:30:00.282Z,97927.20
2023-07-18T19:32:28.745Z,97923.99
2023-07-18T19:34:57.425Z,97927.95
2023-07-18T19:37:25.499Z,97926.84
2023-07-18T19:39:53.827Z,97924.81
2023-07-18T19:42:21.921Z,97920.86
2023-07-18T19:44:50.031Z,97921.27
2023-07-18T19:47:18.063Z,97920.55
2023-07-18T19:49:46.489Z,97923.66
2023-07-18T19:52:15.502Z,97922.02
2023-07-18T19:54:43.476Z,97919.98
2023-07-18T19:57:11.699Z,97909.45
2023-07-18T19:59:39.880Z,97904.89
2023-07-18T20:02:08.298Z,97909.33
2023-07-18T20:04:36.505Z,97921.75
2023-07-18T20:07:05.831Z,97925.42
2023-07-18T20:09:34.469Z,97930.80
2023-07-18T20:12:02.761Z,97931.23
2023-07-18T20:14:30.997Z,97931.54
2023-07-18T20:16:59.146Z,97935.61
2023-07-18T20:19:28.161Z,97935.91
2023-07-18T20:21:56.206Z,97939.31
2023-07-18T20:24:24.268Z,97940.45
2023-07-18T20:26:52.274Z,97939.90
2023-07-18T20:29:20.542Z,97940.11
2023-07-18T20:31:48.732Z,97933.55
2023-07-18T20:34:16.868Z,97926.03
2023-07-18T20:36:44.856Z,97926.31
2023-07-18T20:39:12.963Z,97925.98
2023-07-18T20:41:41.199Z,97922.38
2023-07-18T20:44:09.447Z,97924.41
2023-07-18T20:46:37.757Z,97921.58
2023-07-18T20:49:06.407Z,97920.25
2023-07-18T20:51:34.607Z,97919.11
2023-07-18T20:54:05.389Z,97912.06
2023-07-18T20:56:35.267Z,97916.38
2023-07-18T20:59:06.478Z,97919.27
2023-07-18T21:01:35.245Z,97915.21
2023-07-18T21:04:03.674Z,97913.29
2023-07-18T21:06:31.914Z,97914.20
2023-07-18T21:09:01.376Z,97916.02
2023-07-18T21:11:29.644Z,97918.15
2023-07-18T21:13:57.670Z,97918.30
2023-07-18T21:16:25.743Z,97911.20
2023-07-18T21:18:54.033Z,97908.58
2023-07-18T21:21:22.551Z,97908.04
2023-07-18T21:23:53.400Z,97910.75
2023-07-18T21:26:24.312Z,97908.88
2023-07-18T21:29:03.882Z,97901.56
2023-07-18T21:31:34.168Z,97895.17
2023-07-18T21:34:04.647Z,97888.28
2023-07-18T21:36:32.836Z,97887.14
2023-07-18T21:39:01.303Z,97887.94
2023-07-18T21:41:32.949Z,97884.85
2023-07-18T21:44:02.869Z,97884.20
2023-07-18T21:46:31.371Z,97884.39
2023-07-18T21:48:59.382Z,97883.41
2023-07-18T21:51:27.868Z,97887.52
2023-07-18T21:53:57.102Z,97891.30
2023-07-18T21:56:25.224Z,97890.66
2023-07-18T21:58:53.245Z,97889.59
2023-07-18T22:01:21.672Z,97890.61
2023-07-18T22:03:50.000Z,97893.05
2023-07-18T22:06:18.249Z,97885.80
2023-07-18T22:08:46.844Z,97881.38
2023-07-18T22:11:14.989Z,97878.45
2023-07-18T22:13:43.595Z,97878.54
2023-07-18T22:16:12.154Z,97875.14
2023-07-18T22:18:40.474Z,97870.52
2023-07-18T22:21:08.624Z,97873.25
2023-07-18T22:23:36.733Z,97871.87
2023-07-18T22:26:14.141Z,97872.35
2023-07-18T22:28:43.564Z,97865.14
2023-07-18T22:31:12.219Z,97862.35
2023-07-18T22:33:40.820Z,97861.52
2023-07-18T22:36:09.356Z,97860.77
2023-07-18T22:38:37.410Z,97856.55
2023-07-18T22:41:05.438Z,97855.52
2023-07-18T22:43:33.764Z,97851.11
2023-07-18T22:46:02.047Z,97849.83
2023-07-18T22:48:30.323Z,97848.05
2023-07-18T22:50:59.100Z,97849.95
2023-07-18T22:53:27.143Z,97846.89
2023-07-18T22:55:55.313Z,97843.70
2023-07-18T22:58:23.377Z,97843.77
2023-07-18T23:00:51.877Z,97838.89
2023-07-18T23:03:20.100Z,97820.64
2023-07-18T23:05:48.321Z,97822.48
2023-07-18T23:08:16.548Z,97819.65
2023-07-18T23:10:44.848Z,97814.00
2023-07-18T23:13:15.271Z,97812.11
2023-07-18T23:15:44.639Z,97812.00
2023-07-18T23:18:13.074Z,97812.70
2023-07-18T23:20:41.761Z,97811.56
2023-07-18T23:23:09.961Z,97811.33
2023-07-18T23:25:38.791Z,97813.14
2023-07-18T23:28:07.134Z,97814.70
2023-07-18T23:30:35.267Z,97814.80
2023-07-18T23:33:03.660Z,97816.11
2023-07-18T23:35:32.035Z,97813.27
2023-07-18T23:38:00.236Z,97807.52
2023-07-18T23:40:28.252Z,97806.45
2023-07-18T23:42:56.417Z,97805.11
2023-07-18T23:45:24.602Z,97795.81
2023-07-18T23:47:52.611Z,97790.29
2023-07-18T23:50:20.697Z,97790.98
2023-07-18T23:52:48.726Z,97791.10
2023-07-18T23:55:17.150Z,97791.19
2023-07-18T23:57:45.745Z,97797.14
